sensor_id;sensor_type;location;lat;lon;timestamp;P1;durP1;ratioP1;P2;durP2;ratioP2
10313;SDS011;5202;49.138;10.090;2023-05-07T00:01:47;3.87;;;1.73;;
10313;SDS011;5202;49.138;10.090;2023-05-07T00:04:19;5.57;;;2.10;;
10313;SDS011;5202;49.138;10.090;2023-05-07T00:06:47;2.67;;;2.30;;
10313;SDS011;5202;49.138;10.090;2023-05-07T00:09:39;3.57;;;2.10;;
10313;SDS011;5202;49.138;10.090;2023-05-07T00:12:12;5.33;;;2.17;;
10313;SDS011;5202;49.138;10.090;2023-05-07T00:14:40;3.50;;;2.60;;
10313;SDS011;5202;49.138;10.090;2023-05-07T00:17:09;3.73;;;2.33;;
10313;SDS011;5202;49.138;10.090;2023-05-07T00:19:37;2.53;;;2.33;;
10313;SDS011;5202;49.138;10.090;2023-05-07T00:22:07;4.87;;;3.13;;
10313;SDS011;5202;49.138;10.090;2023-05-07T00:24:35;2.80;;;2.60;;
10313;SDS011;5202;49.138;10.090;2023-05-07T00:27:03;6.00;;;2.73;;
10313;SDS011;5202;49.138;10.090;2023-05-07T00:29:33;3.00;;;2.70;;
10313;SDS011;5202;49.138;10.090;2023-05-07T00:32:03;3.20;;;2.80;;
10313;SDS011;5202;49.138;10.090;2023-05-07T00:34:32;5.53;;;2.53;;
10313;SDS011;5202;49.138;10.090;2023-05-07T00:37:00;3.20;;;2.70;;
10313;SDS011;5202;49.138;10.090;2023-05-07T00:39:31;5.33;;;3.20;;
10313;SDS011;5202;49.138;10.090;2023-05-07T00:42:00;2.97;;;2.67;;
10313;SDS011;5202;49.138;10.090;2023-05-07T00:44:29;4.10;;;2.53;;
10313;SDS011;5202;49.138;10.090;2023-05-07T00:46:58;3.70;;;2.70;;
10313;SDS011;5202;49.138;10.090;2023-05-07T00:49:33;3.47;;;3.03;;
10313;SDS011;5202;49.138;10.090;2023-05-07T00:52:07;3.20;;;2.80;;
10313;SDS011;5202;49.138;10.090;2023-05-07T00:54:39;6.30;;;2.93;;
10313;SDS011;5202;49.138;10.090;2023-05-07T00:57:09;4.03;;;2.80;;
10313;SDS011;5202;49.138;10.090;2023-05-07T00:59:38;4.13;;;3.20;;
10313;SDS011;5202;49.138;10.090;2023-05-07T01:02:08;4.33;;;3.03;;
10313;SDS011;5202;49.138;10.090;2023-05-07T01:04:38;3.63;;;2.93;;
10313;SDS011;5202;49.138;10.090;2023-05-07T01:07:07;3.50;;;3.00;;
10313;SDS011;5202;49.138;10.090;2023-05-07T01:09:36;8.13;;;2.83;;
10313;SDS011;5202;49.138;10.090;2023-05-07T01:12:04;2.57;;;2.37;;
10313;SDS011;5202;49.138;10.090;2023-05-07T01:14:34;3.00;;;2.70;;
10313;SDS011;5202;49.138;10.090;2023-05-07T01:17:02;3.30;;;2.40;;
10313;SDS011;5202;49.138;10.090;2023-05-07T01:19:32;3.93;;;2.70;;
10313;SDS011;5202;49.138;10.090;2023-05-07T01:22:01;5.07;;;2.70;;
10313;SDS011;5202;49.138;10.090;2023-05-07T01:24:47;2.90;;;2.70;;
10313;SDS011;5202;49.138;10.090;2023-05-07T01:27:16;4.03;;;3.03;;
10313;SDS011;5202;49.138;10.090;2023-05-07T01:29:46;5.20;;;3.50;;
10313;SDS011;5202;49.138;10.090;2023-05-07T01:32:15;3.67;;;3.30;;
10313;SDS011;5202;49.138;10.090;2023-05-07T01:34:50;3.87;;;3.00;;
10313;SDS011;5202;49.138;10.090;2023-05-07T01:37:20;6.10;;;2.83;;
10313;SDS011;5202;49.138;10.090;2023-05-07T01:39:51;3.60;;;3.27;;
10313;SDS011;5202;49.138;10.090;2023-05-07T01:42:20;8.63;;;3.53;;
10313;SDS011;5202;49.138;10.090;2023-05-07T01:44:49;3.87;;;3.20;;
10313;SDS011;5202;49.138;10.090;2023-05-07T01:47:17;3.70;;;3.17;;
10313;SDS011;5202;49.138;10.090;2023-05-07T01:49:48;3.20;;;2.90;;
10313;SDS011;5202;49.138;10.090;2023-05-07T01:52:16;3.30;;;3.00;;
10313;SDS011;5202;49.138;10.090;2023-05-07T01:54:45;6.33;;;3.03;;
10313;SDS011;5202;49.138;10.090;2023-05-07T01:57:15;4.23;;;2.80;;
10313;SDS011;5202;49.138;10.090;2023-05-07T01:59:43;4.90;;;2.60;;
10313;SDS011;5202;49.138;10.090;2023-05-07T02:02:11;2.87;;;2.63;;
10313;SDS011;5202;49.138;10.090;2023-05-07T02:04:47;3.57;;;2.40;;
10313;SDS011;5202;49.138;10.090;2023-05-07T02:07:17;3.00;;;2.80;;
10313;SDS011;5202;49.138;10.090;2023-05-07T02:09:45;3.20;;;2.73;;
10313;SDS011;5202;49.138;10.090;2023-05-07T02:12:21;3.07;;;2.70;;
10313;SDS011;5202;49.138;10.090;2023-05-07T02:14:50;5.77;;;2.63;;
10313;SDS011;5202;49.138;10.090;2023-05-07T02:17:19;6.23;;;2.50;;
10313;SDS011;5202;49.138;10.090;2023-05-07T02:19:47;5.83;;;2.83;;
10313;SDS011;5202;49.138;10.090;2023-05-07T02:22:15;5.00;;;2.67;;
10313;SDS011;5202;49.138;10.090;2023-05-07T02:24:43;6.23;;;2.87;;
10313;SDS011;5202;49.138;10.090;2023-05-07T02:27:12;3.90;;;2.47;;
10313;SDS011;5202;49.138;10.090;2023-05-07T02:29:42;2.87;;;2.67;;
10313;SDS011;5202;49.138;10.090;2023-05-07T02:32:10;3.27;;;2.90;;
10313;SDS011;5202;49.138;10.090;2023-05-07T02:34:38;4.13;;;3.07;;
10313;SDS011;5202;49.138;10.090;2023-05-07T02:37:06;5.00;;;3.10;;
10313;SDS011;5202;49.138;10.090;2023-05-07T02:39:35;5.03;;;3.03;;
10313;SDS011;5202;49.138;10.090;2023-05-07T02:42:03;3.33;;;2.53;;
10313;SDS011;5202;49.138;10.090;2023-05-07T02:44:31;3.70;;;2.77;;
10313;SDS011;5202;49.138;10.090;2023-05-07T02:47:03;5.30;;;2.80;;
10313;SDS011;5202;49.138;10.090;2023-05-07T02:49:35;3.03;;;2.83;;
10313;SDS011;5202;49.138;10.090;2023-05-07T02:52:05;6.33;;;2.63;;
10313;SDS011;5202;49.138;10.090;2023-05-07T02:54:34;4.87;;;2.93;;
10313;SDS011;5202;49.138;10.090;2023-05-07T02:57:02;4.63;;;2.70;;
10313;SDS011;5202;49.138;10.090;2023-05-07T02:59:30;3.60;;;3.10;;
10313;SDS011;5202;49.138;10.090;2023-05-07T03:01:59;3.73;;;3.07;;
10313;SDS011;5202;49.138;10.090;2023-05-07T03:04:29;3.77;;;3.10;;
10313;SDS011;5202;49.138;10.090;2023-05-07T03:06:57;3.47;;;3.17;;
10313;SDS011;5202;49.138;10.090;2023-05-07T03:09:26;4.57;;;3.37;;
10313;SDS011;5202;49.138;10.090;2023-05-07T03:11:54;4.83;;;3.17;;
10313;SDS011;5202;49.138;10.090;2023-05-07T03:14:23;3.80;;;2.90;;
10313;SDS011;5202;49.138;10.090;2023-05-07T03:16:51;3.00;;;2.50;;
10313;SDS011;5202;49.138;10.090;2023-05-07T03:19:20;3.30;;;2.47;;
10313;SDS011;5202;49.138;10.090;2023-05-07T03:21:50;3.23;;;2.80;;
10313;SDS011;5202;49.138;10.090;2023-05-07T03:24:19;3.87;;;2.70;;
10313;SDS011;5202;49.138;10.090;2023-05-07T03:26:47;2.93;;;2.70;;
10313;SDS011;5202;49.138;10.090;2023-05-07T03:29:15;3.20;;;2.90;;
10313;SDS011;5202;49.138;10.090;2023-05-07T03:31:44;3.40;;;3.00;;
10313;SDS011;5202;49.138;10.090;2023-05-07T03:34:12;7.37;;;3.20;;
10313;SDS011;5202;49.138;10.090;2023-05-07T03:36:41;4.83;;;4.23;;
10313;SDS011;5202;49.138;10.090;2023-05-07T03:39:12;4.63;;;3.57;;
10313;SDS011;5202;49.138;10.090;2023-05-07T03:41:40;2.43;;;2.23;;
10313;SDS011;5202;49.138;10.090;2023-05-07T03:44:08;3.93;;;2.70;;
10313;SDS011;5202;49.138;10.090;2023-05-07T03:46:37;4.43;;;2.80;;
10313;SDS011;5202;49.138;10.090;2023-05-07T03:49:08;4.23;;;3.10;;
10313;SDS011;5202;49.138;10.090;2023-05-07T03:51:37;4.90;;;3.03;;
10313;SDS011;5202;49.138;10.090;2023-05-07T03:54:07;3.73;;;2.93;;
10313;SDS011;5202;49.138;10.090;2023-05-07T03:56:38;4.60;;;2.83;;
10313;SDS011;5202;49.138;10.090;2023-05-07T03:59:07;3.20;;;2.90;;
10313;SDS011;5202;49.138;10.090;2023-05-07T04:01:35;3.10;;;2.80;;
10313;SDS011;5202;49.138;10.090;2023-05-07T04:04:08;3.77;;;3.13;;
10313;SDS011;5202;49.138;10.090;2023-05-07T04:06:37;6.40;;;3.03;;
10313;SDS011;5202;49.138;10.090;2023-05-07T04:09:34;3.70;;;3.10;;
10313;SDS011;5202;49.138;10.090;2023-05-07T04:12:04;4.70;;;3.50;;
10313;SDS011;5202;49.138;10.090;2023-05-07T04:14:35;4.13;;;2.87;;
10313;SDS011;5202;49.138;10.090;2023-05-07T04:17:22;6.60;;;5.67;;
10313;SDS011;5202;49.138;10.090;2023-05-07T04:19:50;7.03;;;5.13;;
10313;SDS011;5202;49.138;10.090;2023-05-07T04:22:19;4.20;;;3.57;;
10313;SDS011;5202;49.138;10.090;2023-05-07T04:24:47;5.13;;;3.70;;
10313;SDS011;5202;49.138;10.090;2023-05-07T04:27:17;13.80;;;7.03;;
10313;SDS011;5202;49.138;10.090;2023-05-07T04:29:47;6.23;;;4.03;;
10313;SDS011;5202;49.138;10.090;2023-05-07T04:32:17;3.70;;;2.93;;
10313;SDS011;5202;49.138;10.090;2023-05-07T04:34:45;5.37;;;3.20;;
10313;SDS011;5202;49.138;10.090;2023-05-07T04:37:14;3.27;;;2.97;;
10313;SDS011;5202;49.138;10.090;2023-05-07T04:39:42;5.90;;;2.87;;
10313;SDS011;5202;49.138;10.090;2023-05-07T04:42:14;3.13;;;2.87;;
10313;SDS011;5202;49.138;10.090;2023-05-07T04:44:44;2.77;;;2.57;;
10313;SDS011;5202;49.138;10.090;2023-05-07T04:47:12;3.47;;;2.70;;
10313;SDS011;5202;49.138;10.090;2023-05-07T04:49:41;3.70;;;3.17;;
10313;SDS011;5202;49.138;10.090;2023-05-07T04:52:10;4.60;;;3.17;;
10313;SDS011;5202;49.138;10.090;2023-05-07T04:54:39;3.00;;;2.70;;
10313;SDS011;5202;49.138;10.090;2023-05-07T04:57:08;3.80;;;2.77;;
10313;SDS011;5202;49.138;10.090;2023-05-07T04:59:37;3.27;;;2.97;;
10313;SDS011;5202;49.138;10.090;2023-05-07T05:02:06;4.73;;;3.60;;
10313;SDS011;5202;49.138;10.090;2023-05-07T05:04:35;5.20;;;3.57;;
10313;SDS011;5202;49.138;10.090;2023-05-07T05:07:04;4.13;;;3.47;;
10313;SDS011;5202;49.138;10.090;2023-05-07T05:09:32;5.20;;;3.60;;
10313;SDS011;5202;49.138;10.090;2023-05-07T05:12:01;5.23;;;3.20;;
10313;SDS011;5202;49.138;10.090;2023-05-07T05:14:29;4.03;;;3.27;;
10313;SDS011;5202;49.138;10.090;2023-05-07T05:16:57;3.87;;;3.23;;
10313;SDS011;5202;49.138;10.090;2023-05-07T05:19:27;3.60;;;3.30;;
10313;SDS011;5202;49.138;10.090;2023-05-07T05:21:55;4.13;;;3.43;;
10313;SDS011;5202;49.138;10.090;2023-05-07T05:24:24;5.27;;;3.73;;
10313;SDS011;5202;49.138;10.090;2023-05-07T05:26:52;3.90;;;3.40;;
10313;SDS011;5202;49.138;10.090;2023-05-07T05:29:21;3.37;;;3.07;;
10313;SDS011;5202;49.138;10.090;2023-05-07T05:31:49;3.87;;;2.87;;
10313;SDS011;5202;49.138;10.090;2023-05-07T05:34:18;3.70;;;3.10;;
10313;SDS011;5202;49.138;10.090;2023-05-07T05:36:49;4.17;;;2.80;;
10313;SDS011;5202;49.138;10.090;2023-05-07T05:39:18;3.37;;;3.00;;
10313;SDS011;5202;49.138;10.090;2023-05-07T05:41:46;4.03;;;3.30;;
10313;SDS011;5202;49.138;10.090;2023-05-07T05:44:15;4.27;;;3.10;;
10313;SDS011;5202;49.138;10.090;2023-05-07T05:46:43;4.47;;;3.27;;
10313;SDS011;5202;49.138;10.090;2023-05-07T05:49:12;4.07;;;3.20;;
10313;SDS011;5202;49.138;10.090;2023-05-07T05:51:41;3.43;;;3.13;;
10313;SDS011;5202;49.138;10.090;2023-05-07T05:54:13;3.93;;;3.57;;
10313;SDS011;5202;49.138;10.090;2023-05-07T05:56:42;4.37;;;3.87;;
10313;SDS011;5202;49.138;10.090;2023-05-07T05:59:12;4.70;;;3.30;;
10313;SDS011;5202;49.138;10.090;2023-05-07T06:01:40;5.23;;;4.03;;
10313;SDS011;5202;49.138;10.090;2023-05-07T06:04:09;4.70;;;3.87;;
10313;SDS011;5202;49.138;10.090;2023-05-07T06:07:02;4.97;;;3.80;;
10313;SDS011;5202;49.138;10.090;2023-05-07T06:09:31;3.73;;;3.43;;
10313;SDS011;5202;49.138;10.090;2023-05-07T06:12:05;4.80;;;3.97;;
10313;SDS011;5202;49.138;10.090;2023-05-07T06:14:35;4.07;;;3.67;;
10313;SDS011;5202;49.138;10.090;2023-05-07T06:17:03;3.87;;;3.57;;
10313;SDS011;5202;49.138;10.090;2023-05-07T06:19:32;4.57;;;4.00;;
10313;SDS011;5202;49.138;10.090;2023-05-07T06:22:00;8.80;;;4.43;;
10313;SDS011;5202;49.138;10.090;2023-05-07T06:24:32;5.47;;;4.15;;
10313;SDS011;5202;49.138;10.090;2023-05-07T06:27:00;6.37;;;4.00;;
10313;SDS011;5202;49.138;10.090;2023-05-07T06:29:30;5.63;;;4.05;;
10313;SDS011;5202;49.138;10.090;2023-05-07T06:32:07;4.18;;;3.72;;
10313;SDS011;5202;49.138;10.090;2023-05-07T06:34:38;4.43;;;3.60;;
10313;SDS011;5202;49.138;10.090;2023-05-07T06:37:07;4.13;;;3.60;;
10313;SDS011;5202;49.138;10.090;2023-05-07T06:39:48;5.07;;;3.92;;
10313;SDS011;5202;49.138;10.090;2023-05-07T06:42:17;4.93;;;3.58;;
10313;SDS011;5202;49.138;10.090;2023-05-07T06:44:47;4.38;;;3.80;;
10313;SDS011;5202;49.138;10.090;2023-05-07T06:47:17;4.75;;;4.35;;
10313;SDS011;5202;49.138;10.090;2023-05-07T06:49:49;3.60;;;3.30;;
10313;SDS011;5202;49.138;10.090;2023-05-07T06:52:20;6.03;;;4.10;;
10313;SDS011;5202;49.138;10.090;2023-05-07T06:54:51;3.85;;;3.45;;
10313;SDS011;5202;49.138;10.090;2023-05-07T06:57:21;4.47;;;3.70;;
10313;SDS011;5202;49.138;10.090;2023-05-07T06:59:49;4.80;;;4.00;;
10313;SDS011;5202;49.138;10.090;2023-05-07T07:02:19;3.88;;;3.50;;
10313;SDS011;5202;49.138;10.090;2023-05-07T07:04:48;5.90;;;3.80;;
10313;SDS011;5202;49.138;10.090;2023-05-07T07:07:18;4.45;;;3.70;;
10313;SDS011;5202;49.138;10.090;2023-05-07T07:09:48;6.28;;;4.05;;
10313;SDS011;5202;49.138;10.090;2023-05-07T07:12:18;6.93;;;3.63;;
10313;SDS011;5202;49.138;10.090;2023-05-07T07:14:47;4.35;;;3.40;;
10313;SDS011;5202;49.138;10.090;2023-05-07T07:17:15;5.00;;;3.70;;
10313;SDS011;5202;49.138;10.090;2023-05-07T07:19:44;3.72;;;3.20;;
10313;SDS011;5202;49.138;10.090;2023-05-07T07:22:13;6.28;;;3.50;;
10313;SDS011;5202;49.138;10.090;2023-05-07T07:24:41;4.13;;;3.03;;
10313;SDS011;5202;49.138;10.090;2023-05-07T07:27:13;3.30;;;3.00;;
10313;SDS011;5202;49.138;10.090;2023-05-07T07:29:41;5.68;;;3.10;;
10313;SDS011;5202;49.138;10.090;2023-05-07T07:32:10;3.70;;;3.05;;
10313;SDS011;5202;49.138;10.090;2023-05-07T07:34:38;3.00;;;2.70;;
10313;SDS011;5202;49.138;10.090;2023-05-07T07:37:07;3.33;;;2.80;;
10313;SDS011;5202;49.138;10.090;2023-05-07T07:39:36;3.90;;;3.10;;
10313;SDS011;5202;49.138;10.090;2023-05-07T07:42:06;4.13;;;3.20;;
10313;SDS011;5202;49.138;10.090;2023-05-07T07:44:36;4.57;;;2.78;;
10313;SDS011;5202;49.138;10.090;2023-05-07T07:47:08;4.60;;;3.30;;
10313;SDS011;5202;49.138;10.090;2023-05-07T07:49:37;4.43;;;2.78;;
10313;SDS011;5202;49.138;10.090;2023-05-07T07:52:09;3.55;;;2.85;;
10313;SDS011;5202;49.138;10.090;2023-05-07T07:54:39;4.30;;;3.00;;
10313;SDS011;5202;49.138;10.090;2023-05-07T07:57:07;2.75;;;2.55;;
10313;SDS011;5202;49.138;10.090;2023-05-07T07:59:37;4.40;;;2.78;;
10313;SDS011;5202;49.138;10.090;2023-05-07T08:02:06;2.70;;;2.50;;
10313;SDS011;5202;49.138;10.090;2023-05-07T08:04:48;3.65;;;2.42;;
10313;SDS011;5202;49.138;10.090;2023-05-07T08:07:19;4.47;;;2.35;;
10313;SDS011;5202;49.138;10.090;2023-05-07T08:09:49;2.63;;;2.30;;
10313;SDS011;5202;49.138;10.090;2023-05-07T08:12:22;2.75;;;2.45;;
10313;SDS011;5202;49.138;10.090;2023-05-07T08:14:52;3.38;;;2.25;;
10313;SDS011;5202;49.138;10.090;2023-05-07T08:17:20;2.88;;;2.58;;
10313;SDS011;5202;49.138;10.090;2023-05-07T08:19:50;3.15;;;2.35;;
10313;SDS011;5202;49.138;10.090;2023-05-07T08:22:18;3.22;;;2.30;;
10313;SDS011;5202;49.138;10.090;2023-05-07T08:24:47;2.80;;;2.50;;
10313;SDS011;5202;49.138;10.090;2023-05-07T08:27:15;5.28;;;2.50;;
10313;SDS011;5202;49.138;10.090;2023-05-07T08:29:44;3.05;;;2.40;;
10313;SDS011;5202;49.138;10.090;2023-05-07T08:32:18;2.63;;;2.35;;
10313;SDS011;5202;49.138;10.090;2023-05-07T08:34:46;2.75;;;2.45;;
10313;SDS011;5202;49.138;10.090;2023-05-07T08:37:15;2.63;;;2.17;;
10313;SDS011;5202;49.138;10.090;2023-05-07T08:39:44;4.43;;;2.22;;
10313;SDS011;5202;49.138;10.090;2023-05-07T08:42:18;2.60;;;2.00;;
10313;SDS011;5202;49.138;10.090;2023-05-07T08:44:49;2.15;;;1.98;;
10313;SDS011;5202;49.138;10.090;2023-05-07T08:47:23;2.50;;;2.10;;
10313;SDS011;5202;49.138;10.090;2023-05-07T08:50:00;4.63;;;2.03;;
10313;SDS011;5202;49.138;10.090;2023-05-07T08:52:29;2.55;;;1.90;;
10313;SDS011;5202;49.138;10.090;2023-05-07T08:54:58;5.07;;;2.20;;
10313;SDS011;5202;49.138;10.090;2023-05-07T08:57:28;2.78;;;1.83;;
10313;SDS011;5202;49.138;10.090;2023-05-07T08:59:58;2.42;;;2.00;;
10313;SDS011;5202;49.138;10.090;2023-05-07T09:02:28;2.38;;;2.08;;
10313;SDS011;5202;49.138;10.090;2023-05-07T09:04:56;4.55;;;2.13;;
10313;SDS011;5202;49.138;10.090;2023-05-07T09:07:25;1.90;;;1.80;;
10313;SDS011;5202;49.138;10.090;2023-05-07T09:09:54;8.95;;;2.17;;
10313;SDS011;5202;49.138;10.090;2023-05-07T09:12:24;2.20;;;1.73;;
10313;SDS011;5202;49.138;10.090;2023-05-07T09:14:53;2.22;;;2.03;;
10313;SDS011;5202;49.138;10.090;2023-05-07T09:17:22;4.18;;;2.05;;
10313;SDS011;5202;49.138;10.090;2023-05-07T09:19:52;1.90;;;1.80;;
10313;SDS011;5202;49.138;10.090;2023-05-07T09:22:20;4.32;;;2.08;;
10313;SDS011;5202;49.138;10.090;2023-05-07T09:24:58;1.80;;;1.70;;
10313;SDS011;5202;49.138;10.090;2023-05-07T09:27:27;2.38;;;2.00;;
10313;SDS011;5202;49.138;10.090;2023-05-07T09:29:57;2.15;;;1.77;;
10313;SDS011;5202;49.138;10.090;2023-05-07T09:32:25;1.90;;;1.80;;
10313;SDS011;5202;49.138;10.090;2023-05-07T09:34:56;1.98;;;1.55;;
10313;SDS011;5202;49.138;10.090;2023-05-07T09:37:26;1.92;;;1.40;;
10313;SDS011;5202;49.138;10.090;2023-05-07T09:39:55;2.13;;;1.60;;
10313;SDS011;5202;49.138;10.090;2023-05-07T09:42:25;2.10;;;1.40;;
10313;SDS011;5202;49.138;10.090;2023-05-07T09:44:58;2.28;;;1.58;;
10313;SDS011;5202;49.138;10.090;2023-05-07T09:47:33;1.77;;;1.67;;
10313;SDS011;5202;49.138;10.090;2023-05-07T09:50:08;1.63;;;1.52;;
10313;SDS011;5202;49.138;10.090;2023-05-07T09:52:39;1.35;;;1.25;;
10313;SDS011;5202;49.138;10.090;2023-05-07T09:55:09;1.65;;;1.42;;
10313;SDS011;5202;49.138;10.090;2023-05-07T09:57:40;1.20;;;1.10;;
10313;SDS011;5202;49.138;10.090;2023-05-07T10:00:11;1.42;;;1.33;;
10313;SDS011;5202;49.138;10.090;2023-05-07T10:02:47;1.40;;;1.30;;
10313;SDS011;5202;49.138;10.090;2023-05-07T10:05:29;2.85;;;1.70;;
10313;SDS011;5202;49.138;10.090;2023-05-07T10:08:00;4.38;;;1.98;;
10313;SDS011;5202;49.138;10.090;2023-05-07T10:10:32;1.85;;;1.48;;
10313;SDS011;5202;49.138;10.090;2023-05-07T10:13:04;1.55;;;1.40;;
10313;SDS011;5202;49.138;10.090;2023-05-07T10:15:58;1.95;;;1.70;;
10313;SDS011;5202;49.138;10.090;2023-05-07T10:18:33;2.40;;;2.00;;
10313;SDS011;5202;49.138;10.090;2023-05-07T10:21:11;2.70;;;1.92;;
10313;SDS011;5202;49.138;10.090;2023-05-07T10:23:48;2.70;;;2.20;;
10313;SDS011;5202;49.138;10.090;2023-05-07T10:26:20;2.58;;;2.17;;
10313;SDS011;5202;49.138;10.090;2023-05-07T10:28:50;2.33;;;2.10;;
10313;SDS011;5202;49.138;10.090;2023-05-07T10:31:37;2.53;;;2.33;;
10313;SDS011;5202;49.138;10.090;2023-05-07T10:34:19;2.72;;;2.03;;
10313;SDS011;5202;49.138;10.090;2023-05-07T10:36:53;2.38;;;2.00;;
10313;SDS011;5202;49.138;10.090;2023-05-07T10:39:24;2.70;;;1.80;;
10313;SDS011;5202;49.138;10.090;2023-05-07T10:41:52;2.17;;;1.92;;
10313;SDS011;5202;49.138;10.090;2023-05-07T10:44:25;1.75;;;1.65;;
10313;SDS011;5202;49.138;10.090;2023-05-07T10:47:06;3.13;;;1.67;;
10313;SDS011;5202;49.138;10.090;2023-05-07T10:50:19;2.08;;;1.77;;
10313;SDS011;5202;49.138;10.090;2023-05-07T10:59:30;2.13;;;1.98;;
10313;SDS011;5202;49.138;10.090;2023-05-07T11:02:12;4.20;;;1.70;;
10313;SDS011;5202;49.138;10.090;2023-05-07T11:07:54;2.13;;;1.92;;
10313;SDS011;5202;49.138;10.090;2023-05-07T11:10:50;2.03;;;1.83;;
10313;SDS011;5202;49.138;10.090;2023-05-07T11:13:42;2.38;;;1.50;;
10313;SDS011;5202;49.138;10.090;2023-05-07T11:16:20;2.28;;;1.40;;
10313;SDS011;5202;49.138;10.090;2023-05-07T11:18:58;3.83;;;1.33;;
10313;SDS011;5202;49.138;10.090;2023-05-07T11:21:34;1.73;;;1.60;;
10313;SDS011;5202;49.138;10.090;2023-05-07T11:24:22;1.75;;;1.65;;
10313;SDS011;5202;49.138;10.090;2023-05-07T11:26:57;1.80;;;1.70;;
10313;SDS011;5202;49.138;10.090;2023-05-07T11:29:26;2.72;;;1.30;;
10313;SDS011;5202;49.138;10.090;2023-05-07T11:32:02;1.83;;;1.50;;
10313;SDS011;5202;49.138;10.090;2023-05-07T11:34:45;2.53;;;1.70;;
10313;SDS011;5202;49.138;10.090;2023-05-07T11:37:16;1.80;;;1.55;;
10313;SDS011;5202;49.138;10.090;2023-05-07T11:40:01;2.15;;;1.70;;
10313;SDS011;5202;49.138;10.090;2023-05-07T11:42:33;1.80;;;1.70;;
10313;SDS011;5202;49.138;10.090;2023-05-07T11:45:04;2.15;;;1.95;;
10313;SDS011;5202;49.138;10.090;2023-05-07T11:47:35;2.13;;;1.92;;
10313;SDS011;5202;49.138;10.090;2023-05-07T11:50:06;5.55;;;1.80;;
10313;SDS011;5202;49.138;10.090;2023-05-07T11:52:36;3.58;;;1.95;;
10313;SDS011;5202;49.138;10.090;2023-05-07T11:55:06;2.47;;;1.90;;
10313;SDS011;5202;49.138;10.090;2023-05-07T11:57:37;3.50;;;2.05;;
10313;SDS011;5202;49.138;10.090;2023-05-07T12:00:06;3.92;;;2.20;;
10313;SDS011;5202;49.138;10.090;2023-05-07T12:02:39;2.22;;;2.03;;
10313;SDS011;5202;49.138;10.090;2023-05-07T12:05:08;3.70;;;2.25;;
10313;SDS011;5202;49.138;10.090;2023-05-07T12:07:38;4.90;;;2.55;;
10313;SDS011;5202;49.138;10.090;2023-05-07T12:10:08;2.78;;;2.40;;
10313;SDS011;5202;49.138;10.090;2023-05-07T12:12:41;2.30;;;2.10;;
10313;SDS011;5202;49.138;10.090;2023-05-07T12:15:15;2.85;;;1.90;;
10313;SDS011;5202;49.138;10.090;2023-05-07T12:17:44;2.75;;;1.80;;
10313;SDS011;5202;49.138;10.090;2023-05-07T12:20:12;2.47;;;1.80;;
10313;SDS011;5202;49.138;10.090;2023-05-07T12:22:41;2.17;;;2.00;;
10313;SDS011;5202;49.138;10.090;2023-05-07T12:25:10;2.55;;;2.35;;
10313;SDS011;5202;49.138;10.090;2023-05-07T12:27:40;2.58;;;2.20;;
10313;SDS011;5202;49.138;10.090;2023-05-07T12:30:10;2.33;;;2.00;;
10313;SDS011;5202;49.138;10.090;2023-05-07T12:32:40;2.65;;;2.42;;
10313;SDS011;5202;49.138;10.090;2023-05-07T12:35:08;3.88;;;2.63;;
10313;SDS011;5202;49.138;10.090;2023-05-07T12:37:37;2.35;;;2.15;;
10313;SDS011;5202;49.138;10.090;2023-05-07T12:40:06;2.88;;;2.15;;
10313;SDS011;5202;49.138;10.090;2023-05-07T12:42:37;2.40;;;2.20;;
10313;SDS011;5202;49.138;10.090;2023-05-07T12:45:09;2.25;;;2.05;;
10313;SDS011;5202;49.138;10.090;2023-05-07T12:47:43;2.88;;;2.45;;
10313;SDS011;5202;49.138;10.090;2023-05-07T12:50:12;2.35;;;2.15;;
10313;SDS011;5202;49.138;10.090;2023-05-07T12:52:42;1.85;;;1.70;;
10313;SDS011;5202;49.138;10.090;2023-05-07T12:55:12;2.83;;;2.40;;
10313;SDS011;5202;49.138;10.090;2023-05-07T12:57:45;2.63;;;2.30;;
10313;SDS011;5202;49.138;10.090;2023-05-07T13:00:18;2.65;;;2.08;;
10313;SDS011;5202;49.138;10.090;2023-05-07T13:03:01;2.60;;;2.28;;
10313;SDS011;5202;49.138;10.090;2023-05-07T13:05:29;2.85;;;2.10;;
10313;SDS011;5202;49.138;10.090;2023-05-07T13:07:58;2.20;;;1.85;;
10313;SDS011;5202;49.138;10.090;2023-05-07T13:10:26;3.00;;;2.30;;
10313;SDS011;5202;49.138;10.090;2023-05-07T13:12:55;2.10;;;1.85;;
10313;SDS011;5202;49.138;10.090;2023-05-07T13:15:25;2.75;;;2.00;;
10313;SDS011;5202;49.138;10.090;2023-05-07T13:17:53;2.22;;;2.00;;
10313;SDS011;5202;49.138;10.090;2023-05-07T13:20:21;2.20;;;2.00;;
10313;SDS011;5202;49.138;10.090;2023-05-07T13:22:50;2.30;;;2.10;;
10313;SDS011;5202;49.138;10.090;2023-05-07T13:25:19;2.58;;;1.80;;
10313;SDS011;5202;49.138;10.090;2023-05-07T13:27:47;3.75;;;2.03;;
10313;SDS011;5202;49.138;10.090;2023-05-07T13:30:36;1.98;;;1.77;;
10313;SDS011;5202;49.138;10.090;2023-05-07T13:33:04;2.03;;;1.83;;
10313;SDS011;5202;49.138;10.090;2023-05-07T13:35:33;2.33;;;2.13;;
10313;SDS011;5202;49.138;10.090;2023-05-07T13:38:02;3.47;;;2.20;;
10313;SDS011;5202;49.138;10.090;2023-05-07T13:40:30;2.30;;;2.10;;
10313;SDS011;5202;49.138;10.090;2023-05-07T13:42:58;2.08;;;1.98;;
10313;SDS011;5202;49.138;10.090;2023-05-07T13:45:28;2.33;;;2.13;;
10313;SDS011;5202;49.138;10.090;2023-05-07T13:47:58;2.30;;;2.10;;
10313;SDS011;5202;49.138;10.090;2023-05-07T13:50:27;2.75;;;2.03;;
10313;SDS011;5202;49.138;10.090;2023-05-07T13:52:56;3.30;;;2.05;;
10313;SDS011;5202;49.138;10.090;2023-05-07T13:55:24;2.88;;;2.00;;
10313;SDS011;5202;49.138;10.090;2023-05-07T13:57:55;3.53;;;2.40;;
10313;SDS011;5202;49.138;10.090;2023-05-07T14:00:25;4.25;;;2.10;;
10313;SDS011;5202;49.138;10.090;2023-05-07T14:02:54;2.28;;;2.08;;
10313;SDS011;5202;49.138;10.090;2023-05-07T14:05:25;2.55;;;2.00;;
10313;SDS011;5202;49.138;10.090;2023-05-07T14:08:00;3.15;;;2.28;;
10313;SDS011;5202;49.138;10.090;2023-05-07T14:10:29;2.63;;;2.25;;
10313;SDS011;5202;49.138;10.090;2023-05-07T14:13:02;2.92;;;2.50;;
10313;SDS011;5202;49.138;10.090;2023-05-07T14:15:49;3.75;;;2.30;;
10313;SDS011;5202;49.138;10.090;2023-05-07T14:18:17;4.68;;;1.92;;
10313;SDS011;5202;49.138;10.090;2023-05-07T14:20:47;3.65;;;1.90;;
10313;SDS011;5202;49.138;10.090;2023-05-07T14:23:15;2.00;;;1.88;;
10313;SDS011;5202;49.138;10.090;2023-05-07T14:25:45;2.50;;;2.20;;
10313;SDS011;5202;49.138;10.090;2023-05-07T14:28:14;2.40;;;2.05;;
10313;SDS011;5202;49.138;10.090;2023-05-07T14:30:42;4.82;;;1.88;;
10313;SDS011;5202;49.138;10.090;2023-05-07T14:33:10;2.00;;;1.90;;
10313;SDS011;5202;49.138;10.090;2023-05-07T14:35:39;2.10;;;1.88;;
10313;SDS011;5202;49.138;10.090;2023-05-07T14:38:08;4.00;;;2.08;;
10313;SDS011;5202;49.138;10.090;2023-05-07T14:40:37;3.53;;;2.15;;
10313;SDS011;5202;49.138;10.090;2023-05-07T14:43:05;2.28;;;2.00;;
10313;SDS011;5202;49.138;10.090;2023-05-07T14:45:33;2.03;;;1.85;;
10313;SDS011;5202;49.138;10.090;2023-05-07T14:48:02;4.90;;;1.95;;
10313;SDS011;5202;49.138;10.090;2023-05-07T14:50:31;3.67;;;2.17;;
10313;SDS011;5202;49.138;10.090;2023-05-07T14:52:59;2.47;;;2.25;;
10313;SDS011;5202;49.138;10.090;2023-05-07T14:55:29;2.60;;;2.33;;
10313;SDS011;5202;49.138;10.090;2023-05-07T14:58:00;3.45;;;2.00;;
10313;SDS011;5202;49.138;10.090;2023-05-07T15:00:29;2.15;;;1.95;;
10313;SDS011;5202;49.138;10.090;2023-05-07T15:03:03;2.17;;;1.98;;
10313;SDS011;5202;49.138;10.090;2023-05-07T15:05:34;2.08;;;1.98;;
10313;SDS011;5202;49.138;10.090;2023-05-07T15:08:03;3.40;;;2.13;;
10313;SDS011;5202;49.138;10.090;2023-05-07T15:10:35;2.83;;;2.13;;
10313;SDS011;5202;49.138;10.090;2023-05-07T15:13:07;4.47;;;2.00;;
10313;SDS011;5202;49.138;10.090;2023-05-07T15:15:41;2.20;;;2.00;;
10313;SDS011;5202;49.138;10.090;2023-05-07T15:18:11;2.13;;;1.92;;
10313;SDS011;5202;49.138;10.090;2023-05-07T15:20:39;2.67;;;2.00;;